Sichem Montreal — 9VLS2 — position and weather

sailwx.info

Track history (hours):
 
Tides and Currents Weather Stations Pressure Air Temp Water Temp Dewpoint Dewpoint Depression Visibility Wind Speed Wind Dir Waves Ship Positions

Sichem Montreal

Last reported at 2014-Aug-29 04:34 UTC. Time now 2014-Aug-29 05:35 UTC.
Position N 32°07' E 119°55'.

Length 128 m; draft 8.8 m.

Type: Ship. MMSI: 565884000.

Date/timePositionNaut miles runAvg speedWind from/ knotsBaromVisibWave heightAir tempDewpointWater temp
2014-Aug-29 04:34N 32°07' E 119°55'2 0.2
2014-Aug-28 21:16N 32°09' E 119°54'6 8.3
2014-Aug-28 20:33N 32°03' E 119°56'9 8.7
2014-Aug-28 19:33N 31°57' E 120°04'8 7.9
2014-Aug-28 18:33N 31°56' E 120°13'8 8.1
2014-Aug-28 17:33N 31°58' E 120°22'7 6.5
2014-Aug-28 16:33N 32°02' E 120°28'9 9.1
2014-Aug-28 15:34N 31°60' E 120°39'9 8.5
2014-Aug-28 14:33N 32°00' E 120°49'9 9.1
2014-Aug-28 13:33N 31°52' E 120°54'7 7.3
2014-Aug-28 12:33N 31°47' E 120°60'19 9.4
2014-Aug-28 10:33N 31°36' E 121°18'1010.4
2014-Aug-28 09:33N 31°29' E 121°27'6 6.1
2014-Aug-28 08:33N 31°25' E 121°32'9 8.6
2014-Aug-28 07:32N 31°20' E 121°41'1110.0
2014-Aug-28 06:25N 31°16' E 121°53'4711.3
2014-Aug-28 02:14N 31°04' E 122°47'1013.5
2014-Aug-28 01:30N 31°00' E 122°57'1212.8
2014-Aug-28 00:33N 30°54' E 123°10'45712.6
2014-Aug-26 12:21N 23°53' E 119°51'3016.2
2014-Aug-26 10:30N 23°23' E 119°48'1414.1
2014-Aug-26 09:31N 23°09' E 119°47'1312.2
2014-Aug-26 08:29N 22°57' E 119°47'1112.2
2014-Aug-26 07:33N 22°45' E 119°46'1312.5
2014-Aug-26 06:29N 22°32' E 119°45'  
2014-Aug-21 04:34N 01°15' E 104°04'1211.8
2014-Aug-21 03:32N 01°12' E 103°53'  
Track history (hours):
 
Tides and Currents Weather Stations Pressure Air Temp Water Temp Dewpoint Dewpoint Depression Visibility Wind Speed Wind Dir Waves Ship Positions

Sichem Montreal

Last reported at 2014-Aug-29 04:34 UTC. Time now 2014-Aug-29 05:35 UTC.
Position N 32°07' E 119°55'.

Length 128 m; draft 8.8 m.

Type: Ship. MMSI: 565884000.

Date/timePositionNaut miles runAvg speedWind from/ knotsBaromVisibWave heightAir tempDewpointWater temp
2014-Aug-29 04:34N 32°07' E 119°55'2 0.2
2014-Aug-28 21:16N 32°09' E 119°54'6 8.3
2014-Aug-28 20:33N 32°03' E 119°56'9 8.7
2014-Aug-28 19:33N 31°57' E 120°04'8 7.9
2014-Aug-28 18:33N 31°56' E 120°13'8 8.1
2014-Aug-28 17:33N 31°58' E 120°22'7 6.5
2014-Aug-28 16:33N 32°02' E 120°28'9 9.1
2014-Aug-28 15:34N 31°60' E 120°39'9 8.5
2014-Aug-28 14:33N 32°00' E 120°49'9 9.1
2014-Aug-28 13:33N 31°52' E 120°54'7 7.3
2014-Aug-28 12:33N 31°47' E 120°60'19 9.4
2014-Aug-28 10:33N 31°36' E 121°18'1010.4
2014-Aug-28 09:33N 31°29' E 121°27'6 6.1
2014-Aug-28 08:33N 31°25' E 121°32'9 8.6
2014-Aug-28 07:32N 31°20' E 121°41'1110.0
2014-Aug-28 06:25N 31°16' E 121°53'4711.3
2014-Aug-28 02:14N 31°04' E 122°47'1013.5
2014-Aug-28 01:30N 31°00' E 122°57'1212.8
2014-Aug-28 00:33N 30°54' E 123°10'45712.6
2014-Aug-26 12:21N 23°53' E 119°51'3016.2
2014-Aug-26 10:30N 23°23' E 119°48'1414.1
2014-Aug-26 09:31N 23°09' E 119°47'1312.2
2014-Aug-26 08:29N 22°57' E 119°47'1112.2
2014-Aug-26 07:33N 22°45' E 119°46'1312.5
2014-Aug-26 06:29N 22°32' E 119°45'  
2014-Aug-21 04:34N 01°15' E 104°04'1211.8
2014-Aug-21 03:32N 01°12' E 103°53'  

Dump ship's entire track history